Roberts International Airport

Jump to: basic info | weather | frequencies | runways | comments

Related pages: nearby airports | nearby navaids | notams | map

Basic information (top)

Codes: ROB GLRB
Location: lon 6.233790, lat -10.362300, elev 31 ft / 9 m msl
Status: medium_airport
Scheduled airline service: yes
Links: Wikipedia Mobile

Weather (top)

Current conditions (rec'd 2014/08/21 06:00Z):

GLRB 210600Z 22005KT 9999 BKN012 25/24 Q1014 NOSIG

Airport forecast (rec'd 2014/08/21 06:54Z):

TAF TAF GLRB 210400Z 2106/2212 23010KT 8000 BKN013 FEW024 CB 
      BECMG 2108/2110 18008KT 7000 RA/RADZ SCT005 BKN011 
      TEMPO 2111/2115 21012KT 9999 BKN016

Frequencies (top)

Verify before use: may be inaccurate or out of date.

A/G: 345.2 MHz (A/G VOICE RDO)
APP: 124.5 MHz (ROBERTS APP)
GND: 121.9 MHz (GND)
TWR: 118.3 MHz (ROBERTS TWR)

Runways (top)

04/22: 11,000 x 150 ft (3,353 x 46 m) — paved — lighted — threshold 22 displaced 1,200 ft (366 m)

Latest comments (top)

No comments yet for Roberts International Airport

More... (top)

See also NOTAMs and nearby airports and navaids, or visit the Roberts International Airport page at the main OurAirports website..